Main page
METAR-TAF:

METAR-TAF

Airports :

Gore Bay-Manitoulin Airport

Gore Bay, Ontario, Canada

latitude: 45-53N, longitude: 082-34W, elevation: 193 m

Current weather observation

The report was made 1 hour and 9 minutes ago, at 19:00 UTC
Wind 5 kt from the South/Southwest, varying between South/Southeast and West
Temperature 18°C
Humidity 45%
Pressure 1023 hPa
Visibility: 14.5 km
Clear sky

METAR: CYZE 151900Z AUTO 20005KT 150V270 9SM CLR 18/06 A3020 RMK SLP232

Time: 16:09 (20:09 UTC)

Forecast

The report was made 29 minutes ago, at 19:40 UTC
Forecast valid from 15 at 20 UTC to 15 at 22 UTC
Wind 5 kt from the South/Southwest
Visibility: 10 km
Scattered clouds at a height of 20000 ft
Becoming
from 15 at 20 UTC to 15 at 21 UTC
Wind 12 kt from the South/Southwest

TAF: CYZE 151940Z 1520/1522 20005KT P6SM SCT200 BECMG 1520/1521 21012KT RMK FCST BASED ON AUTO OBS. NXT FCST BY 161000Z

Weather observations and forecasts of more than 4000 airports (METAR and TAF reports).

The available stations are represented by yellow and red dots on the map.

Hover mouse over dot to see the name of the station.

Then click to see weather observations and forecasts.

To change the map : click on the green buttons with a black cross to zoom in, on the green button with a dash to zoom out, or on the green arrows for adjacent maps.


METAR-TAF: